createdAt,value
2018-12-19T00:00:35.999Z,11.60
2018-12-19T00:02:59.406Z,11.83
2018-12-19T00:07:51.897Z,11.83
2018-12-19T00:10:15.039Z,12.83
2018-12-19T00:12:38.168Z,13.30
2018-12-19T00:15:01.279Z,11.70
2018-12-19T00:17:24.381Z,13.00
2018-12-19T00:19:47.540Z,12.73
2018-12-19T00:22:10.634Z,11.60
2018-12-19T00:24:34.062Z,13.23
2018-12-19T00:26:57.194Z,13.50
2018-12-19T00:29:20.291Z,13.57
2018-12-19T00:31:43.427Z,12.47
2018-12-19T00:34:06.534Z,12.57
2018-12-19T00:36:29.696Z,13.00
2018-12-19T00:38:52.806Z,12.47
2018-12-19T00:41:15.925Z,12.83
2018-12-19T00:43:39.033Z,13.00
2018-12-19T00:46:02.155Z,12.30
2018-12-19T00:48:25.241Z,12.57
2018-12-19T00:50:48.366Z,12.87
2018-12-19T00:53:11.463Z,15.07
2018-12-19T00:55:34.584Z,12.27
2018-12-19T00:57:57.688Z,12.90
2018-12-19T01:00:20.802Z,12.67
2018-12-19T01:02:43.965Z,12.80
2018-12-19T01:05:07.151Z,13.30
2018-12-19T01:07:30.267Z,12.33
2018-12-19T01:09:53.375Z,13.27
2018-12-19T01:12:16.494Z,13.03
2018-12-19T01:14:39.609Z,13.43
2018-12-19T01:17:02.756Z,13.63
2018-12-19T01:19:25.886Z,13.60
2018-12-19T01:21:49.447Z,12.90
2018-12-19T01:24:12.572Z,13.80
2018-12-19T01:26:35.696Z,13.80
2018-12-19T01:28:58.819Z,13.40
2018-12-19T01:31:21.937Z,13.17
2018-12-19T01:33:45.060Z,13.23
2018-12-19T01:36:08.168Z,13.30
2018-12-19T01:38:31.299Z,13.53
2018-12-19T01:40:54.497Z,13.00
2018-12-19T01:43:17.605Z,14.17
2018-12-19T01:45:40.751Z,13.50
2018-12-19T01:48:03.915Z,13.60
2018-12-19T01:50:27.046Z,14.00
2018-12-19T01:52:50.182Z,13.30
2018-12-19T01:55:13.338Z,13.80
2018-12-19T01:57:36.474Z,14.10
2018-12-19T01:59:59.589Z,14.20
2018-12-19T02:02:22.707Z,13.90
2018-12-19T02:04:45.872Z,14.17
2018-12-19T02:07:09.041Z,13.80
2018-12-19T02:09:32.174Z,14.10
2018-12-19T02:11:55.309Z,14.40
2018-12-19T02:14:18.409Z,14.20
2018-12-19T02:16:41.548Z,14.03
2018-12-19T02:19:04.698Z,13.13
2018-12-19T02:21:29.028Z,13.83
2018-12-19T02:23:52.107Z,14.83
2018-12-19T02:26:15.779Z,13.67
2018-12-19T02:28:38.869Z,13.93
2018-12-19T02:31:02.056Z,12.57
2018-12-19T02:33:25.169Z,13.87
2018-12-19T02:35:48.279Z,13.60
2018-12-19T02:38:11.456Z,14.33
2018-12-19T02:40:34.563Z,12.63
2018-12-19T02:42:57.674Z,13.07
2018-12-19T02:45:20.796Z,13.90
2018-12-19T02:47:43.926Z,12.77
2018-12-19T02:50:07.212Z,13.77
2018-12-19T02:52:30.331Z,12.73
2018-12-19T02:54:53.455Z,14.10
2018-12-19T02:57:16.566Z,13.40
2018-12-19T02:59:39.676Z,13.10
2018-12-19T03:02:02.831Z,12.27
2018-12-19T03:04:26.011Z,13.60
2018-12-19T03:06:49.183Z,12.57
2018-12-19T03:09:12.368Z,12.57
2018-12-19T03:11:35.500Z,12.37
2018-12-19T03:13:58.661Z,13.00
2018-12-19T03:16:22.109Z,12.20
2018-12-19T03:18:45.239Z,12.50
2018-12-19T03:21:08.363Z,12.40
2018-12-19T03:23:32.078Z,11.90
2018-12-19T03:25:55.162Z,12.07
2018-12-19T03:28:18.288Z,13.10
2018-12-19T03:30:41.440Z,12.27
2018-12-19T03:33:04.593Z,11.60
2018-12-19T03:35:27.723Z,12.10
2018-12-19T03:37:50.946Z,11.93
2018-12-19T03:40:14.130Z,12.63
2018-12-19T03:45:06.944Z,11.97
2018-12-19T03:47:30.088Z,12.23
2018-12-19T03:49:53.223Z,12.20
2018-12-19T03:52:16.377Z,12.67
2018-12-19T03:54:39.533Z,12.40
2018-12-19T03:57:03.503Z,12.53
2018-12-19T03:59:26.698Z,12.17
2018-12-19T04:01:49.827Z,12.20
2018-12-19T04:04:12.975Z,12.30
2018-12-19T04:06:36.138Z,12.37
2018-12-19T04:08:59.260Z,12.67
2018-12-19T04:11:22.390Z,12.53
2018-12-19T04:13:45.496Z,13.00
2018-12-19T04:16:08.621Z,12.40
2018-12-19T04:21:01.198Z,13.03
2018-12-19T04:23:25.389Z,12.43
2018-12-19T04:25:48.503Z,12.97
2018-12-19T04:28:11.612Z,12.50
2018-12-19T04:30:36.687Z,13.00
2018-12-19T04:32:59.933Z,13.80
2018-12-19T04:35:23.051Z,13.27
2018-12-19T04:37:46.182Z,13.47
2018-12-19T04:40:09.348Z,12.13
2018-12-19T04:42:32.453Z,13.63
2018-12-19T04:44:55.580Z,12.97
2018-12-19T04:47:18.736Z,13.33
2018-12-19T04:49:41.839Z,13.20
2018-12-19T04:52:04.983Z,12.40
2018-12-19T04:54:28.181Z,11.60
2018-12-19T04:56:51.369Z,12.77
2018-12-19T04:59:14.509Z,11.83
2018-12-19T05:01:37.618Z,11.83
2018-12-19T05:04:00.723Z,11.83
2018-12-19T05:06:23.865Z,11.53
2018-12-19T05:08:46.967Z,12.97
2018-12-19T05:11:10.091Z,12.37
2018-12-19T05:13:33.202Z,11.40
2018-12-19T05:15:56.344Z,12.63
2018-12-19T05:18:19.455Z,12.17
2018-12-19T05:20:42.551Z,12.57
2018-12-19T05:23:05.709Z,11.87
2018-12-19T05:25:28.814Z,12.57
2018-12-19T05:27:51.951Z,12.23
2018-12-19T05:30:15.067Z,11.33
2018-12-19T05:32:38.170Z,11.00
2018-12-19T05:35:01.428Z,13.00
2018-12-19T05:37:24.552Z,11.73
2018-12-19T05:39:47.690Z,13.70
2018-12-19T05:42:10.792Z,13.20
2018-12-19T05:44:34.012Z,12.20
2018-12-19T05:46:57.107Z,11.50
2018-12-19T05:49:20.223Z,11.67
2018-12-19T05:51:43.331Z,11.93
2018-12-19T05:54:06.446Z,13.27
2018-12-19T05:56:29.587Z,12.87
2018-12-19T05:58:52.780Z,12.03
2018-12-19T06:01:15.896Z,12.20
2018-12-19T06:03:39.871Z,12.27
2018-12-19T06:06:03.039Z,11.77
2018-12-19T06:08:26.201Z,11.43
2018-12-19T06:10:49.306Z,11.83
2018-12-19T06:13:12.448Z,12.50
2018-12-19T06:15:35.567Z,11.13
2018-12-19T06:17:58.688Z,11.83
2018-12-19T06:20:21.783Z,11.90
2018-12-19T06:22:44.929Z,12.03
2018-12-19T06:25:08.064Z,11.27
2018-12-19T06:27:31.205Z,11.93
2018-12-19T06:29:54.563Z,11.70
2018-12-19T06:32:17.697Z,12.67
2018-12-19T06:34:40.834Z,12.47
2018-12-19T06:37:04.101Z,11.37
2018-12-19T06:39:27.340Z,11.70
2018-12-19T06:41:50.475Z,11.67
2018-12-19T06:44:13.618Z,12.03
2018-12-19T06:46:36.774Z,12.13
2018-12-19T06:48:59.933Z,12.30
2018-12-19T06:51:23.073Z,11.67
2018-12-19T06:53:46.160Z,11.53
2018-12-19T06:56:09.290Z,11.60
2018-12-19T06:58:32.413Z,12.70
2018-12-19T07:00:55.545Z,11.83
2018-12-19T07:03:18.670Z,12.60
2018-12-19T07:05:41.779Z,12.20
2018-12-19T07:08:04.898Z,11.83
2018-12-19T07:10:28.002Z,11.57
2018-12-19T07:12:51.121Z,11.57
2018-12-19T07:15:14.261Z,12.37
2018-12-19T07:17:37.387Z,12.07
2018-12-19T07:20:00.518Z,12.13
2018-12-19T07:22:23.619Z,12.10
2018-12-19T07:24:46.795Z,11.40
2018-12-19T07:27:10.289Z,11.80
2018-12-19T07:29:33.508Z,11.27
2018-12-19T07:31:56.646Z,11.77
2018-12-19T07:34:19.770Z,11.23
2018-12-19T07:36:42.905Z,11.20
2018-12-19T07:39:07.080Z,11.70
2018-12-19T07:41:30.173Z,11.27
2018-12-19T07:43:53.310Z,11.37
2018-12-19T07:46:19.753Z,11.33
2018-12-19T07:48:41.674Z,11.47
2018-12-19T07:51:04.809Z,11.40
2018-12-19T07:53:27.945Z,12.07
2018-12-19T07:55:51.101Z,11.93
2018-12-19T07:58:14.195Z,12.47
2018-12-19T08:00:37.336Z,10.90
2018-12-19T08:03:00.448Z,12.23
2018-12-19T08:05:26.375Z,11.37
2018-12-19T08:07:48.667Z,11.40
2018-12-19T08:10:11.772Z,11.17
2018-12-19T08:12:36.110Z,11.17
2018-12-19T08:15:01.749Z,11.57
2018-12-19T08:17:24.872Z,12.50
2018-12-19T08:19:48.072Z,11.13
2018-12-19T08:22:11.271Z,11.10
2018-12-19T08:24:34.360Z,11.63
2018-12-19T08:26:57.494Z,12.83
2018-12-19T08:29:20.606Z,12.20
2018-12-19T08:31:43.846Z,12.23
2018-12-19T08:34:07.234Z,11.93
2018-12-19T08:36:30.331Z,11.67
2018-12-19T08:38:53.515Z,11.50
2018-12-19T08:41:16.623Z,11.53
2018-12-19T08:43:39.779Z,11.57
2018-12-19T08:46:02.984Z,11.70
2018-12-19T08:48:26.075Z,12.20
2018-12-19T08:50:49.244Z,11.73
2018-12-19T08:53:12.333Z,12.03
2018-12-19T08:55:35.468Z,12.03
2018-12-19T08:57:58.599Z,11.70
2018-12-19T09:00:21.720Z,12.00
2018-12-19T09:02:44.876Z,12.03
2018-12-19T09:05:08.056Z,11.70
2018-12-19T09:07:31.208Z,11.10
2018-12-19T09:09:54.334Z,11.67
2018-12-19T09:12:17.460Z,11.13
2018-12-19T09:14:40.659Z,10.73
2018-12-19T09:17:03.905Z,11.10
2018-12-19T09:19:27.048Z,12.20
2018-12-19T09:21:50.223Z,11.27
2018-12-19T09:24:13.324Z,10.90
2018-12-19T09:26:36.480Z,11.70
2018-12-19T09:28:59.612Z,10.63
2018-12-19T09:31:22.763Z,11.17
2018-12-19T09:33:45.913Z,11.67
2018-12-19T09:36:09.047Z,11.03
2018-12-19T09:38:32.161Z,11.27
2018-12-19T09:40:55.262Z,11.10
2018-12-19T09:43:18.411Z,11.53
2018-12-19T09:45:41.568Z,11.47
2018-12-19T09:48:04.752Z,11.47
2018-12-19T09:50:27.874Z,11.83
2018-12-19T09:52:50.985Z,12.00
2018-12-19T09:55:14.140Z,10.60
2018-12-19T09:57:37.413Z,11.43
2018-12-19T10:00:00.527Z,11.07
2018-12-19T10:02:23.991Z,11.73
2018-12-19T10:04:47.098Z,10.57
2018-12-19T10:07:10.208Z,11.03
2018-12-19T10:09:33.349Z,11.43
2018-12-19T10:11:56.510Z,11.43
2018-12-19T10:14:19.667Z,11.23
2018-12-19T10:16:42.786Z,10.93
2018-12-19T10:19:05.929Z,10.90
2018-12-19T10:21:29.130Z,10.97
2018-12-19T10:23:52.265Z,11.67
2018-12-19T10:26:15.424Z,10.37
2018-12-19T10:28:38.534Z,11.63
2018-12-19T10:31:01.674Z,10.63
2018-12-19T10:33:24.798Z,11.43
2018-12-19T10:35:47.903Z,10.47
2018-12-19T10:38:11.023Z,10.43
2018-12-19T10:40:34.122Z,10.67
2018-12-19T10:42:57.241Z,10.50
2018-12-19T10:45:20.348Z,10.40
2018-12-19T10:47:43.449Z,11.13
2018-12-19T10:50:07.653Z,10.13
2018-12-19T10:52:30.804Z,9.73
2018-12-19T10:54:53.923Z,11.00
2018-12-19T10:57:17.098Z,9.67
2018-12-19T10:59:40.229Z,10.00
2018-12-19T11:02:03.403Z,9.67
2018-12-19T11:04:26.566Z,10.27
2018-12-19T11:06:49.685Z,10.77
2018-12-19T11:09:12.795Z,9.97
2018-12-19T11:11:35.900Z,10.07
2018-12-19T11:13:59.066Z,10.50
2018-12-19T11:16:22.179Z,10.33
2018-12-19T11:18:45.274Z,9.80
2018-12-19T11:21:08.501Z,10.43
2018-12-19T11:23:31.609Z,10.27
2018-12-19T11:25:54.757Z,10.30
2018-12-19T11:28:17.870Z,10.00
2018-12-19T11:30:40.992Z,10.73
2018-12-19T11:33:04.118Z,10.10
2018-12-19T11:35:27.230Z,9.77
2018-12-19T11:37:50.365Z,9.93
2018-12-19T11:40:13.548Z,10.37
2018-12-19T11:42:36.700Z,10.83
2018-12-19T11:44:59.891Z,10.70
2018-12-19T11:47:23.013Z,10.53
2018-12-19T11:49:46.119Z,9.83
2018-12-19T11:52:09.279Z,10.00
2018-12-19T11:54:32.364Z,10.43
2018-12-19T11:56:55.480Z,10.87
2018-12-19T11:59:18.599Z,9.97
2018-12-19T12:01:41.754Z,10.37
2018-12-19T12:04:04.951Z,10.63
2018-12-19T12:06:28.077Z,9.70
2018-12-19T12:08:51.238Z,10.50
2018-12-19T12:11:14.382Z,11.03
2018-12-19T12:13:37.478Z,10.50
2018-12-19T12:16:00.592Z,10.00
2018-12-19T12:18:23.707Z,10.40
2018-12-19T12:20:46.872Z,10.37
2018-12-19T12:23:09.981Z,9.73
2018-12-19T12:25:33.095Z,9.67
2018-12-19T12:27:56.179Z,9.93
2018-12-19T12:30:19.282Z,9.43
2018-12-19T12:32:42.409Z,9.90
2018-12-19T12:35:06.583Z,10.00
2018-12-19T12:37:29.712Z,10.03
2018-12-19T12:39:52.820Z,10.30
2018-12-19T12:42:15.972Z,10.20
2018-12-19T12:44:39.555Z,10.17
2018-12-19T12:47:02.696Z,9.70
2018-12-19T12:49:25.833Z,9.80
2018-12-19T12:51:48.982Z,10.53
2018-12-19T12:54:12.085Z,10.27
2018-12-19T12:56:35.218Z,10.33
2018-12-19T12:58:58.311Z,10.37
2018-12-19T13:01:21.442Z,9.57
2018-12-19T13:03:44.545Z,9.37
2018-12-19T13:06:07.636Z,9.27
2018-12-19T13:08:30.758Z,10.37
2018-12-19T13:10:53.849Z,9.10
2018-12-19T13:13:16.975Z,8.97
2018-12-19T13:15:42.056Z,9.00
2018-12-19T13:18:05.239Z,10.00
2018-12-19T13:20:28.402Z,9.60
2018-12-19T13:22:51.504Z,9.30
2018-12-19T13:25:14.611Z,9.83
2018-12-19T13:27:37.759Z,9.13
2018-12-19T13:30:00.851Z,11.40
2018-12-19T13:32:27.762Z,10.17
2018-12-19T13:34:50.886Z,10.00
2018-12-19T13:37:13.995Z,9.93
2018-12-19T13:39:37.091Z,9.93
2018-12-19T13:42:05.568Z,10.20
2018-12-19T13:44:25.377Z,10.03
2018-12-19T13:46:48.574Z,10.47
2018-12-19T13:49:11.683Z,11.87
2018-12-19T13:51:34.873Z,10.37
2018-12-19T13:53:57.995Z,10.40
2018-12-19T13:56:21.118Z,10.17
2018-12-19T13:58:44.256Z,9.93
2018-12-19T14:01:07.352Z,9.27
2018-12-19T14:03:30.450Z,9.90
2018-12-19T14:05:53.563Z,9.57
2018-12-19T14:08:16.679Z,9.60
2018-12-19T14:10:40.220Z,9.40
2018-12-19T14:13:03.389Z,9.97
2018-12-19T14:15:26.479Z,9.93
2018-12-19T14:17:49.640Z,9.87
2018-12-19T14:20:12.758Z,11.53
2018-12-19T14:22:35.976Z,10.07
2018-12-19T14:24:59.107Z,11.00
2018-12-19T14:27:22.216Z,10.33
2018-12-19T14:29:45.365Z,10.60
2018-12-19T14:32:08.478Z,10.23
2018-12-19T14:34:31.599Z,11.23
2018-12-19T14:36:54.743Z,11.70
2018-12-19T14:39:17.865Z,11.93
2018-12-19T14:41:41.001Z,10.63
2018-12-19T14:44:04.236Z,12.27
2018-12-19T14:46:27.373Z,12.23
2018-12-19T14:48:50.471Z,11.77
2018-12-19T14:51:13.603Z,11.93
2018-12-19T14:53:36.723Z,12.47
2018-12-19T14:55:59.929Z,11.93
2018-12-19T14:58:23.055Z,13.13
2018-12-19T15:00:46.155Z,11.60
2018-12-19T15:03:09.265Z,12.07
2018-12-19T15:05:32.383Z,12.47
2018-12-19T15:07:55.531Z,12.50
2018-12-19T15:10:18.794Z,11.47
2018-12-19T15:12:41.914Z,11.10
2018-12-19T15:15:07.170Z,11.00
2018-12-19T15:17:30.327Z,10.90
2018-12-19T15:19:53.426Z,10.70
2018-12-19T15:22:16.533Z,11.40
2018-12-19T15:24:39.754Z,10.73
2018-12-19T15:27:02.897Z,10.77
2018-12-19T15:29:26.012Z,10.70
2018-12-19T15:31:49.244Z,10.87
2018-12-19T15:34:12.349Z,11.57
2018-12-19T15:36:35.633Z,11.90
2018-12-19T15:38:58.729Z,10.37
2018-12-19T15:41:21.918Z,10.90
2018-12-19T15:43:45.038Z,11.37
2018-12-19T15:46:08.147Z,11.00
2018-12-19T15:48:31.275Z,11.33
2018-12-19T15:50:54.391Z,11.53
2018-12-19T15:53:17.530Z,10.57
2018-12-19T15:55:40.637Z,11.03
2018-12-19T15:58:03.820Z,11.20
2018-12-19T16:00:26.916Z,11.63
2018-12-19T16:02:50.044Z,11.80
2018-12-19T16:05:13.199Z,10.63
2018-12-19T16:07:36.321Z,12.07
2018-12-19T16:09:59.568Z,11.57
2018-12-19T16:12:22.662Z,10.73
2018-12-19T16:14:45.881Z,11.37
2018-12-19T16:17:08.995Z,12.20
2018-12-19T16:19:32.098Z,11.97
2018-12-19T16:21:55.211Z,11.70
2018-12-19T16:24:18.323Z,11.57
2018-12-19T16:26:41.552Z,12.43
2018-12-19T16:29:04.662Z,12.77
2018-12-19T16:31:27.799Z,13.50
2018-12-19T16:33:50.935Z,12.00
2018-12-19T16:36:14.128Z,12.80
2018-12-19T16:38:37.348Z,12.60
2018-12-19T16:41:00.453Z,12.07
2018-12-19T16:43:23.559Z,12.30
2018-12-19T16:45:46.688Z,12.77
2018-12-19T16:48:09.777Z,12.30
2018-12-19T16:50:33.125Z,11.63
2018-12-19T16:52:56.224Z,12.43
2018-12-19T16:55:19.393Z,12.23
2018-12-19T16:57:42.529Z,13.20
2018-12-19T17:00:07.938Z,13.67
2018-12-19T17:02:31.052Z,14.37
2018-12-19T17:04:54.176Z,13.80
2018-12-19T17:07:17.395Z,13.37
2018-12-19T17:09:40.521Z,13.10
2018-12-19T17:12:03.661Z,13.10
2018-12-19T17:14:26.831Z,12.73
2018-12-19T17:16:49.922Z,13.73
2018-12-19T17:19:13.079Z,12.70
2018-12-19T17:21:36.194Z,13.10
2018-12-19T17:23:59.424Z,12.77
2018-12-19T17:26:22.543Z,11.73
2018-12-19T17:28:45.640Z,12.63
2018-12-19T17:31:08.809Z,13.07
2018-12-19T17:33:31.929Z,12.93
2018-12-19T17:35:55.029Z,12.50
2018-12-19T17:38:18.203Z,12.20
2018-12-19T17:40:41.318Z,13.60
2018-12-19T17:43:04.444Z,13.10
2018-12-19T17:45:27.563Z,12.93
2018-12-19T17:47:50.668Z,12.93
2018-12-19T17:50:13.830Z,12.70
2018-12-19T17:52:36.942Z,16.43
2018-12-19T17:55:00.098Z,14.73
2018-12-19T17:57:23.313Z,13.63
2018-12-19T17:59:46.426Z,15.47
2018-12-19T18:02:09.615Z,12.70
2018-12-19T18:04:32.718Z,12.93
2018-12-19T18:06:55.843Z,12.37
2018-12-19T18:09:20.688Z,12.30
2018-12-19T18:11:43.835Z,11.70
2018-12-19T18:14:07.016Z,13.67
2018-12-19T18:16:30.121Z,13.33
2018-12-19T18:18:53.242Z,13.63
2018-12-19T18:21:16.377Z,13.73
2018-12-19T18:23:39.552Z,13.13
2018-12-19T18:26:02.708Z,12.60
2018-12-19T18:28:25.876Z,12.63
2018-12-19T18:30:48.981Z,13.10
2018-12-19T18:33:12.068Z,12.40
2018-12-19T18:35:35.223Z,13.23
2018-12-19T18:40:27.655Z,13.07
2018-12-19T18:42:50.765Z,12.93
2018-12-19T18:45:13.907Z,13.60
2018-12-19T18:47:37.052Z,13.77
2018-12-19T18:50:00.187Z,12.87
2018-12-19T18:52:23.335Z,15.10
2018-12-19T18:54:46.451Z,15.93
2018-12-19T18:57:09.541Z,17.50
2018-12-19T18:59:32.674Z,17.63
2018-12-19T19:01:55.796Z,16.47
2018-12-19T19:04:18.952Z,16.87
2018-12-19T19:06:42.081Z,16.00
2018-12-19T19:09:05.877Z,15.70
2018-12-19T19:11:29.125Z,16.43
2018-12-19T19:13:52.232Z,14.47
2018-12-19T19:16:15.398Z,14.90
2018-12-19T19:18:38.522Z,14.20
2018-12-19T19:21:01.660Z,13.53
2018-12-19T19:23:24.801Z,14.83
2018-12-19T19:25:48.159Z,14.23
2018-12-19T19:28:11.404Z,15.50
2018-12-19T19:30:34.608Z,17.90
2018-12-19T19:32:57.810Z,16.40
2018-12-19T19:35:21.007Z,16.60
2018-12-19T19:37:44.260Z,15.93
2018-12-19T19:40:08.738Z,15.77
2018-12-19T19:42:31.857Z,16.37
2018-12-19T19:44:55.050Z,16.73
2018-12-19T19:49:49.139Z,15.47
2018-12-19T19:52:12.360Z,16.33
2018-12-19T19:54:35.546Z,15.67
2018-12-19T19:56:58.731Z,16.77
2018-12-19T19:59:21.859Z,16.07
2018-12-19T20:01:45.263Z,15.47
2018-12-19T20:04:08.412Z,15.10
2018-12-19T20:06:31.577Z,17.83
2018-12-19T20:08:54.716Z,16.27
2018-12-19T20:11:18.523Z,15.83
2018-12-19T20:13:41.704Z,16.23
2018-12-19T20:16:04.816Z,20.43
2018-12-19T20:18:28.029Z,19.67
2018-12-19T20:20:51.163Z,19.20
2018-12-19T20:23:14.269Z,17.23
2018-12-19T20:25:37.452Z,17.17
2018-12-19T20:28:00.632Z,16.83
2018-12-19T20:30:23.858Z,16.67
2018-12-19T20:32:47.009Z,16.47
2018-12-19T20:35:10.171Z,17.00
2018-12-19T20:37:35.067Z,18.10
2018-12-19T20:39:58.185Z,16.10
2018-12-19T20:42:21.328Z,17.60
2018-12-19T20:44:44.469Z,16.23
2018-12-19T20:47:07.597Z,14.97
2018-12-19T20:49:30.787Z,16.53
2018-12-19T20:51:54.915Z,16.07
2018-12-19T20:54:18.064Z,16.67
2018-12-19T20:56:41.208Z,17.20
2018-12-19T20:59:04.345Z,17.73
2018-12-19T21:01:27.499Z,17.43
2018-12-19T21:03:50.648Z,16.07
2018-12-19T21:06:13.823Z,16.40
2018-12-19T21:08:37.891Z,16.23
2018-12-19T21:11:01.011Z,16.10
2018-12-19T21:13:24.205Z,16.03
2018-12-19T21:15:47.324Z,15.00
2018-12-19T21:18:15.997Z,15.80
2018-12-19T21:20:39.118Z,16.37
2018-12-19T21:23:02.240Z,15.53
2018-12-19T21:25:25.416Z,15.70
2018-12-19T21:27:48.544Z,15.77
2018-12-19T21:30:11.711Z,15.20
2018-12-19T21:32:34.819Z,16.17
2018-12-19T21:34:57.966Z,15.77
2018-12-19T21:37:21.098Z,16.10
2018-12-19T21:39:44.298Z,15.67
2018-12-19T21:42:07.515Z,16.43
2018-12-19T21:44:30.632Z,17.20
2018-12-19T21:46:54.405Z,14.97
2018-12-19T21:49:17.539Z,15.97
2018-12-19T21:51:40.797Z,16.53
2018-12-19T21:54:04.153Z,15.57
2018-12-19T21:56:27.329Z,16.13
2018-12-19T21:58:50.505Z,16.50
2018-12-19T22:01:13.750Z,16.73
2018-12-19T22:03:36.987Z,16.37
2018-12-19T22:06:00.195Z,16.17
2018-12-19T22:08:23.346Z,16.90
2018-12-19T22:10:46.635Z,17.17
2018-12-19T22:13:09.753Z,17.47
2018-12-19T22:15:32.886Z,17.30
2018-12-19T22:18:01.525Z,16.80
2018-12-19T22:20:24.712Z,17.03
2018-12-19T22:22:47.858Z,17.23
2018-12-19T22:25:10.968Z,16.93
2018-12-19T22:27:34.265Z,18.57
2018-12-19T22:29:57.407Z,17.67
2018-12-19T22:32:20.592Z,17.27
2018-12-19T22:34:43.862Z,17.00
2018-12-19T22:37:07.010Z,17.03
2018-12-19T22:39:30.160Z,16.93
2018-12-19T22:41:53.323Z,17.67
2018-12-19T22:44:16.540Z,16.03
2018-12-19T22:46:39.697Z,16.87
2018-12-19T22:49:02.804Z,17.73
2018-12-19T22:51:25.968Z,18.63
2018-12-19T22:53:49.127Z,17.93
2018-12-19T22:56:12.285Z,18.80
2018-12-19T22:58:35.502Z,18.00
2018-12-19T23:01:04.476Z,17.43
2018-12-19T23:03:33.219Z,17.17
2018-12-19T23:05:56.474Z,17.47
2018-12-19T23:08:19.688Z,17.70
2018-12-19T23:10:42.892Z,17.67
2018-12-19T23:13:06.032Z,16.13
2018-12-19T23:15:29.135Z,17.20
2018-12-19T23:17:54.357Z,16.27
2018-12-19T23:20:17.453Z,16.30
2018-12-19T23:22:40.581Z,16.53
2018-12-19T23:25:04.967Z,16.50
2018-12-19T23:27:28.259Z,16.60
2018-12-19T23:29:51.415Z,15.33
2018-12-19T23:32:16.735Z,16.70
2018-12-19T23:34:39.835Z,16.43
2018-12-19T23:37:03.163Z,15.30
2018-12-19T23:39:26.313Z,15.87
2018-12-19T23:41:49.492Z,16.00
2018-12-19T23:44:14.536Z,16.73
2018-12-19T23:46:37.775Z,14.97
2018-12-19T23:49:00.949Z,15.47
2018-12-19T23:51:24.153Z,15.73
2018-12-19T23:53:47.321Z,15.50
2018-12-19T23:56:10.458Z,15.90
2018-12-19T23:58:33.558Z,15.77
